Time;durP1;ratioP1;P1;durP2;ratioP2;P2;SDS_P1;SDS_P2;PMS_P1;PMS_P2;Temp;Humidity;BMP_temperature;BMP_pressure;BME280_temperature;BME280_humidity;BME280_pressure;Samples;Min_cycle;Max_cycle;Signal;HPM_P1;HPM_P2
2022/04/13 00:00:28;;;;;;;11.07;5.60;;;14.10;99.90;;;;;;5034056;28;20061;-79
2022/04/13 00:02:54;;;;;;;12.63;5.43;;;14.00;99.90;;;;;;5034016;28;20532;-79
2022/04/13 00:05:20;;;;;;;11.68;5.65;;;14.00;99.90;;;;;;5034675;28;20057;-78
2022/04/13 00:07:46;;;;;;;9.50;5.60;;;14.00;99.90;;;;;;5034062;28;20588;-78
2022/04/13 00:10:11;;;;;;;9.35;5.47;;;13.90;99.90;;;;;;5031934;28;20080;-78
2022/04/13 00:12:37;;;;;;;7.65;4.82;;;13.90;99.90;;;;;;5033023;28;20048;-79
2022/04/13 00:15:05;;;;;;;9.68;5.35;;;13.90;99.90;;;;;;5033401;28;20048;-79
2022/04/13 00:17:31;;;;;;;9.13;5.57;;;13.90;99.90;;;;;;5034141;28;20045;-79
2022/04/13 00:19:58;;;;;;;9.38;5.82;;;13.80;99.90;;;;;;5034027;28;20106;-79
2022/04/13 00:22:24;;;;;;;10.18;5.90;;;13.80;99.90;;;;;;5033529;28;20609;-79
2022/04/13 00:24:49;;;;;;;10.35;5.80;;;13.70;99.90;;;;;;5017422;28;20135;-79
2022/04/13 00:27:15;;;;;;;10.85;5.72;;;13.60;99.90;;;;;;5033331;28;20107;-79
2022/04/13 00:29:41;;;;;;;9.18;5.40;;;13.50;99.90;;;;;;5017388;28;20107;-78
2022/04/13 00:32:07;;;;;;;10.25;5.40;;;13.40;99.90;;;;;;5033214;28;20467;-79
2022/04/13 00:34:34;;;;;;;9.40;5.90;;;13.40;99.90;;;;;;5034118;28;20053;-79
2022/04/13 00:36:59;;;;;;;11.63;6.45;;;13.40;99.90;;;;;;5032624;28;20060;-79
2022/04/13 00:39:26;;;;;;;11.30;6.40;;;13.40;99.90;;;;;;5033703;28;20520;-79
2022/04/13 00:41:55;;;;;;;;;;;13.40;99.90;;;;;;5050270;28;20526;-79
2022/04/13 00:44:21;;;;;;;10.23;5.18;;;13.40;99.90;;;;;;5033752;28;20555;-78
2022/04/13 00:46:46;;;;;;;9.20;5.50;;;13.40;99.90;;;;;;5017499;28;20153;-79
2022/04/13 00:49:14;;;;;;;10.82;5.88;;;13.40;99.90;;;;;;5016767;28;20110;-79
2022/04/13 00:51:40;;;;;;;11.70;5.65;;;13.40;99.90;;;;;;5017006;28;20057;-79
2022/04/13 00:54:06;;;;;;;12.70;6.15;;;13.40;99.90;;;;;;5016096;28;20132;-78
2022/04/13 00:56:35;;;;;;;11.48;6.07;;;13.40;99.90;;;;;;5033627;28;20049;-79
2022/04/13 00:59:06;;;;;;;10.23;6.32;;;13.40;99.90;;;;;;5015350;28;20143;-79
2022/04/13 01:01:34;;;;;;;12.27;6.43;;;13.40;99.90;;;;;;5017129;28;20115;-79
2022/04/13 01:04:02;;;;;;;11.07;6.55;;;13.40;99.90;;;;;;5016637;28;20131;-79
2022/04/13 01:06:30;;;;;;;11.10;6.90;;;13.40;99.90;;;;;;5016333;28;20052;-79
2022/04/13 01:08:55;;;;;;;11.15;6.40;;;13.40;99.90;;;;;;5016269;28;20045;-79
2022/04/13 01:11:22;;;;;;;12.02;6.82;;;13.50;99.90;;;;;;5033417;28;20044;-79
2022/04/13 01:13:48;;;;;;;12.85;6.82;;;13.50;99.90;;;;;;5031683;28;20563;-78
2022/04/13 01:16:14;;;;;;;11.43;6.70;;;13.50;99.90;;;;;;4999542;28;20045;-79
2022/04/13 01:18:40;;;;;;;13.32;6.40;;;13.50;99.90;;;;;;5000891;28;20482;-79
2022/04/13 01:21:10;;;;;;;12.13;6.85;;;13.50;99.90;;;;;;5015664;28;20084;-79
2022/04/13 01:23:35;;;;;;;10.27;6.53;;;13.40;99.90;;;;;;5033104;28;20130;-79
2022/04/13 01:26:01;;;;;;;11.43;7.03;;;13.40;99.90;;;;;;5016182;28;20045;-79
2022/04/13 01:28:27;;;;;;;14.77;6.80;;;13.40;99.90;;;;;;5031688;28;20402;-79
2022/04/13 01:30:52;;;;;;;11.60;6.80;;;13.40;99.90;;;;;;5032979;28;20716;-80
2022/04/13 01:33:18;;;;;;;13.10;7.82;;;13.40;99.90;;;;;;5016399;28;20075;-79
2022/04/13 01:35:44;;;;;;;13.95;7.90;;;13.40;99.90;;;;;;5032726;28;20044;-78
2022/04/13 01:38:10;;;;;;;11.90;7.20;;;13.30;99.90;;;;;;5008225;28;20136;-79
2022/04/13 01:40:36;;;;;;;14.35;7.30;;;13.30;99.90;;;;;;4993495;28;20137;-79
2022/04/13 01:43:02;;;;;;;14.70;8.32;;;13.20;99.90;;;;;;5024918;28;20120;-79
2022/04/13 01:45:27;;;;;;;11.65;7.95;;;13.10;99.90;;;;;;5008683;28;20104;-79
2022/04/13 01:47:53;;;;;;;13.13;7.55;;;13.10;99.90;;;;;;4993454;28;20543;-79
2022/04/13 01:50:20;;;;;;;12.27;7.70;;;13.00;99.90;;;;;;4992759;28;20070;-79
2022/04/13 01:52:47;;;;;;;14.02;7.75;;;13.00;99.90;;;;;;4998807;28;20049;-78
2022/04/13 01:55:13;;;;;;;15.63;7.60;;;13.00;99.90;;;;;;5008662;28;20061;-78
2022/04/13 01:57:40;;;;;;;15.52;7.47;;;12.90;99.90;;;;;;5008488;28;20123;-79
2022/04/13 02:00:09;;;;;;;12.23;7.55;;;12.90;99.90;;;;;;5007799;28;20483;-78
2022/04/13 02:02:35;;;;;;;16.38;7.05;;;12.80;99.90;;;;;;4993170;28;20049;-79
2022/04/13 02:05:01;;;;;;;13.82;6.93;;;12.80;99.90;;;;;;5008282;28;20088;-79
2022/04/13 02:07:28;;;;;;;14.85;7.38;;;12.80;99.90;;;;;;4992549;28;20041;-78
2022/04/13 02:09:55;;;;;;;11.15;7.40;;;12.70;99.90;;;;;;5009035;28;20042;-78
2022/04/13 02:12:21;;;;;;;15.50;7.68;;;12.70;99.90;;;;;;5007506;28;20138;-79
2022/04/13 02:14:47;;;;;;;14.73;7.75;;;12.70;99.90;;;;;;4992694;28;20136;-79
2022/04/13 02:17:16;;;;;;;11.82;7.50;;;12.70;99.90;;;;;;5008471;28;20119;-79
2022/04/13 02:19:43;;;;;;;14.63;7.78;;;12.70;99.90;;;;;;5009224;28;20100;-79
2022/04/13 02:22:09;;;;;;;16.98;7.25;;;12.70;99.90;;;;;;4990718;28;20058;-79
2022/04/13 02:24:35;;;;;;;;;;;12.70;99.90;;;;;;4989719;28;20133;-79
2022/04/13 02:27:01;;;;;;;13.13;7.35;;;12.60;99.90;;;;;;4987727;28;20021;-79
2022/04/13 02:29:27;;;;;;;18.98;9.15;;;12.60;99.90;;;;;;4988949;28;20046;-79
2022/04/13 02:31:53;;;;;;;13.05;8.20;;;12.60;99.90;;;;;;4973192;28;20042;-78
2022/04/13 02:34:18;;;;;;;14.95;8.07;;;12.50;99.90;;;;;;4989600;28;20171;-79
2022/04/13 02:36:44;;;;;;;13.48;8.40;;;12.50;99.90;;;;;;5002487;28;20064;-79
2022/04/13 02:39:10;;;;;;;12.68;8.00;;;12.40;99.90;;;;;;5031187;28;20494;-79
2022/04/13 02:41:36;;;;;;;13.52;7.97;;;12.40;99.90;;;;;;5031847;28;20048;-79
2022/04/13 02:44:03;;;;;;;15.38;7.93;;;12.30;99.90;;;;;;5013355;28;20502;-79
2022/04/13 02:46:28;;;;;;;17.40;9.10;;;12.20;99.90;;;;;;5031910;28;20083;-79
2022/04/13 02:48:54;;;;;;;15.10;8.70;;;12.10;99.90;;;;;;5031817;28;20084;-79
2022/04/13 02:51:20;;;;;;;14.80;8.45;;;12.00;99.90;;;;;;5014033;28;20053;-79
2022/04/13 02:53:45;;;;;;;19.25;8.05;;;12.00;99.90;;;;;;4998432;28;20106;-79
2022/04/13 02:56:11;;;;;;;15.90;8.40;;;11.90;99.90;;;;;;5030927;28;20052;-79
2022/04/13 02:58:37;;;;;;;13.07;8.23;;;11.90;99.90;;;;;;5030373;28;20143;-79
2022/04/13 03:01:04;;;;;;;16.77;8.75;;;11.80;99.90;;;;;;5030949;28;20445;-79
2022/04/13 03:03:31;;;;;;;14.95;8.45;;;11.70;99.90;;;;;;5031008;28;20132;-78
2022/04/13 03:05:56;;;;;;;11.30;7.32;;;11.70;99.90;;;;;;5030570;28;20053;-78
2022/04/13 03:08:22;;;;;;;11.15;7.32;;;11.60;99.90;;;;;;5011778;28;20548;-79
2022/04/13 03:10:48;;;;;;;11.63;8.20;;;11.50;99.90;;;;;;4998862;28;20052;-79
2022/04/13 03:13:13;;;;;;;18.83;9.18;;;11.40;99.90;;;;;;5029597;28;20051;-79
2022/04/13 03:15:39;;;;;;;13.52;8.93;;;11.30;99.90;;;;;;5031018;28;20061;-79
2022/04/13 03:18:08;;;;;;;15.25;8.68;;;11.30;99.90;;;;;;5030598;28;20052;-79
2022/04/13 03:20:34;;;;;;;16.75;9.20;;;11.20;99.90;;;;;;5030950;28;20131;-78
2022/04/13 03:23:01;;;;;;;12.77;8.43;;;11.10;99.90;;;;;;5010252;28;20054;-80
2022/04/13 03:25:27;;;;;;;15.32;8.60;;;11.20;99.90;;;;;;5031115;28;20060;-79
2022/04/13 03:27:53;;;;;;;16.40;9.02;;;11.10;99.90;;;;;;5010269;28;20049;-79
2022/04/13 03:30:19;;;;;;;;;;;11.10;99.90;;;;;;5033850;28;20057;-78
2022/04/13 03:32:45;;;;;;;12.85;8.15;;;11.20;99.90;;;;;;5034417;28;20012;-79
2022/04/13 03:35:11;;;;;;;17.27;8.75;;;11.20;99.90;;;;;;5018211;28;20048;-79
2022/04/13 03:37:39;;;;;;;15.88;9.35;;;11.20;99.90;;;;;;5034305;28;20151;-78
2022/04/13 03:40:06;;;;;;;19.33;9.40;;;11.20;99.90;;;;;;5034376;28;20045;-79
2022/04/13 03:42:36;;;;;;;14.20;8.35;;;11.30;99.90;;;;;;5017252;28;20059;-79
2022/04/13 03:45:07;;;;;;;15.75;7.95;;;11.30;99.90;;;;;;5033873;28;20581;-79
2022/04/13 03:47:33;;;;;;;13.13;7.22;;;11.20;99.90;;;;;;5035151;28;20414;-79
2022/04/13 03:49:59;;;;;;;14.70;7.90;;;11.00;99.90;;;;;;5034328;28;20044;-79
2022/04/13 03:52:25;;;;;;;17.85;9.60;;;10.90;99.90;;;;;;5033348;28;20095;-79
2022/04/13 03:54:51;;;;;;;;;;;10.80;99.90;;;;;;5018474;28;20109;-78
2022/04/13 03:57:16;;;;;;;15.45;10.07;;;10.80;99.90;;;;;;5033324;28;19920;-79
2022/04/13 03:59:42;;;;;;;16.92;9.98;;;10.80;99.90;;;;;;5018216;28;20053;-78
2022/04/13 04:02:08;;;;;;;16.17;9.75;;;10.90;99.90;;;;;;5017529;28;20053;-78
2022/04/13 04:04:33;;;;;;;16.80;10.13;;;11.00;99.90;;;;;;5018404;28;20049;-79
2022/04/13 04:06:59;;;;;;;15.20;9.57;;;11.10;99.90;;;;;;5034259;28;20041;-79
2022/04/13 04:09:25;;;;;;;18.85;9.90;;;11.10;99.90;;;;;;5033863;28;20057;-79
2022/04/13 04:11:50;;;;;;;18.55;9.85;;;11.10;99.90;;;;;;5033994;28;20448;-79
2022/04/13 04:14:16;;;;;;;17.00;9.98;;;11.20;99.90;;;;;;5016196;28;20048;-79
2022/04/13 04:16:42;;;;;;;17.80;9.27;;;11.10;99.90;;;;;;4998396;28;20045;-79
2022/04/13 04:19:08;;;;;;;15.50;9.75;;;11.10;99.90;;;;;;5014358;28;20474;-79
2022/04/13 04:21:33;;;;;;;16.55;9.23;;;11.10;99.90;;;;;;5014045;28;20053;-79
2022/04/13 04:23:59;;;;;;;16.25;9.70;;;11.10;99.90;;;;;;5026810;28;20037;-79
2022/04/13 04:26:25;;;;;;;16.55;9.43;;;11.10;99.90;;;;;;5033641;28;20049;-79
2022/04/13 04:28:50;;;;;;;19.77;10.25;;;11.10;99.90;;;;;;5016343;28;20055;-79
2022/04/13 04:31:19;;;;;;;22.30;10.88;;;11.00;99.90;;;;;;5017137;28;20053;-78
2022/04/13 04:33:45;;;;;;;17.48;9.40;;;11.00;99.90;;;;;;5017201;28;20049;-79
2022/04/13 04:36:11;;;;;;;;;;;11.00;99.90;;;;;;5032285;28;20079;-79
2022/04/13 04:38:37;;;;;;;14.57;8.98;;;11.00;99.90;;;;;;5017111;28;19921;-79
2022/04/13 04:41:03;;;;;;;19.30;9.52;;;10.90;99.90;;;;;;5017467;28;20092;-78
2022/04/13 04:43:29;;;;;;;18.30;10.07;;;10.90;99.90;;;;;;5032364;28;20045;-79
2022/04/13 04:45:55;;;;;;;19.27;9.73;;;10.90;99.90;;;;;;5017489;28;20789;-79
2022/04/13 04:48:20;;;;;;;19.05;9.43;;;10.90;99.90;;;;;;5017080;28;20048;-79
2022/04/13 04:50:46;;;;;;;19.40;10.18;;;10.90;99.90;;;;;;5016853;28;20056;-78
2022/04/13 04:53:12;;;;;;;20.17;10.43;;;10.90;99.90;;;;;;5033006;28;20043;-79
2022/04/13 04:55:38;;;;;;;17.40;10.23;;;11.00;99.90;;;;;;5017326;28;20052;-79
2022/04/13 04:58:03;;;;;;;18.48;10.02;;;11.00;99.90;;;;;;5032756;28;20080;-79
2022/04/13 05:00:35;;;;;;;19.67;10.85;;;11.00;99.90;;;;;;5027065;28;20530;-79
2022/04/13 05:03:00;;;;;;;18.65;10.75;;;11.00;99.90;;;;;;5033347;28;20498;-79
2022/04/13 05:05:26;;;;;;;20.60;11.52;;;11.00;99.90;;;;;;5032897;28;20037;-78
2022/04/13 05:07:52;;;;;;;18.02;10.98;;;11.00;99.90;;;;;;5032886;28;20487;-79
2022/04/13 05:10:17;;;;;;;23.33;11.48;;;11.00;99.90;;;;;;5032562;28;20079;-79
2022/04/13 05:12:47;;;;;;;27.73;12.35;;;11.00;99.90;;;;;;5032428;28;20410;-79
2022/04/13 05:15:13;;;;;;;20.08;12.18;;;11.00;99.90;;;;;;5032466;28;20064;-79
2022/04/13 05:17:39;;;;;;;25.50;12.27;;;11.00;99.90;;;;;;5016665;28;20074;-79
2022/04/13 05:20:07;;;;;;;20.67;12.13;;;11.00;99.90;;;;;;5016257;28;20049;-79
2022/04/13 05:22:33;;;;;;;30.25;12.77;;;11.00;99.90;;;;;;5031877;28;20052;-79
2022/04/13 05:25:14;;;;;;;26.55;13.25;;;11.10;99.90;;;;;;5032625;28;20060;-79
2022/04/13 05:27:40;;;;;;;20.92;12.80;;;11.10;99.90;;;;;;5032631;28;20056;-79
2022/04/13 05:30:07;;;;;;;21.52;12.38;;;11.20;99.90;;;;;;5016356;28;20418;-79
2022/04/13 05:32:49;;;;;;;22.10;12.38;;;11.20;99.90;;;;;;5032671;28;20053;-79
2022/04/13 05:35:15;;;;;;;22.27;11.38;;;11.20;99.90;;;;;;5016141;28;20554;-79
2022/04/13 05:37:41;;;;;;;21.98;11.70;;;11.20;99.90;;;;;;5015421;28;20525;-79
2022/04/13 05:40:07;;;;;;;17.50;10.80;;;11.20;99.90;;;;;;5016465;28;20045;-79
2022/04/13 05:42:33;;;;;;;;;;;11.20;99.90;;;;;;5019949;28;20056;-79
2022/04/13 05:44:58;;;;;;;23.80;11.32;;;11.10;99.90;;;;;;4996203;28;19924;-79
2022/04/13 05:47:25;;;;;;;17.50;11.10;;;11.10;99.90;;;;;;5014506;28;20123;-79
2022/04/13 05:49:50;;;;;;;;;;;11.10;99.90;;;;;;5033310;28;20056;-79
2022/04/13 05:52:16;;;;;;;20.27;11.13;;;11.10;99.90;;;;;;5031038;28;19925;-79
2022/04/13 05:54:42;;;;;;;19.33;11.95;;;11.10;99.90;;;;;;5016048;28;20056;-79
2022/04/13 05:57:08;;;;;;;22.02;12.30;;;11.10;99.90;;;;;;5015086;28;20086;-79
2022/04/13 05:59:34;;;;;;;18.70;12.35;;;11.10;99.90;;;;;;5027903;28;20053;-79
2022/04/13 06:02:00;;;;;;;20.10;12.82;;;11.20;99.90;;;;;;5002362;28;20061;-79
2022/04/13 06:04:26;;;;;;;21.92;12.73;;;11.20;99.90;;;;;;5023790;28;20071;-79
2022/04/13 06:06:54;;;;;;;20.40;13.32;;;11.20;99.90;;;;;;5031410;28;20075;-79
2022/04/13 06:09:20;;;;;;;21.80;13.07;;;11.30;99.90;;;;;;5021310;28;20398;-79
2022/04/13 06:11:46;;;;;;;19.38;11.85;;;11.30;99.90;;;;;;5015782;28;20157;-79
2022/04/13 06:14:11;;;;;;;20.50;12.60;;;11.40;99.90;;;;;;5013232;28;20513;-79
2022/04/13 06:16:37;;;;;;;21.05;12.68;;;11.50;99.90;;;;;;5015550;28;20045;-80
2022/04/13 06:19:03;;;;;;;20.98;12.90;;;11.40;99.90;;;;;;5015811;28;20179;-80
2022/04/13 06:21:28;;;;;;;23.15;13.60;;;11.50;99.90;;;;;;5014829;28;20063;-79
2022/04/13 06:23:54;;;;;;;25.48;13.10;;;11.50;99.90;;;;;;5029421;28;20056;-79
2022/04/13 06:26:19;;;;;;;22.30;14.32;;;11.50;99.90;;;;;;5017403;28;20052;-79
2022/04/13 06:28:45;;;;;;;20.73;13.77;;;11.50;99.90;;;;;;5014040;28;20615;-79
2022/04/13 06:31:11;;;;;;;30.23;15.13;;;11.60;99.90;;;;;;4997738;28;20388;-80
2022/04/13 06:33:37;;;;;;;30.35;14.95;;;11.60;99.90;;;;;;5031587;28;20044;-79
2022/04/13 06:36:05;;;;;;;26.08;14.50;;;11.70;99.90;;;;;;5031312;28;20087;-79
2022/04/13 06:38:31;;;;;;;24.40;14.38;;;11.80;99.90;;;;;;4998536;28;20494;-79
2022/04/13 06:40:57;;;;;;;23.17;14.65;;;11.90;99.90;;;;;;5015207;28;20553;-80
2022/04/13 06:43:23;;;;;;;25.05;14.38;;;12.10;99.90;;;;;;5029892;28;20049;-79
2022/04/13 06:45:48;;;;;;;23.17;14.45;;;12.20;99.90;;;;;;5015371;28;20664;-79
2022/04/13 06:48:14;;;;;;;24.48;13.90;;;12.40;99.90;;;;;;5031546;28;20064;-80
2022/04/13 06:50:40;;;;;;;25.50;13.98;;;12.50;99.90;;;;;;5031081;28;20106;-79
2022/04/13 06:53:05;;;;;;;25.30;13.20;;;12.70;99.90;;;;;;5027542;28;20048;-80
2022/04/13 06:55:31;;;;;;;18.02;11.68;;;12.80;99.90;;;;;;5015671;28;20128;-80
2022/04/13 06:57:57;;;;;;;23.33;13.32;;;13.00;99.90;;;;;;5030295;28;20095;-80
2022/04/13 07:00:23;;;;;;;24.67;11.80;;;13.10;99.90;;;;;;5030657;28;20048;-80
2022/04/13 07:02:49;;;;;;;22.85;12.07;;;13.10;99.90;;;;;;5031590;28;20061;-80
2022/04/13 07:05:15;;;;;;;;;;;13.30;99.90;;;;;;5030681;28;20049;-80
2022/04/13 07:07:41;;;;;;;21.67;11.35;;;13.30;99.90;;;;;;5047083;28;19929;-80
2022/04/13 07:10:07;;;;;;;18.08;10.30;;;13.30;99.90;;;;;;5019281;28;20052;-79
2022/04/13 07:12:35;;;;;;;21.58;12.02;;;13.40;99.90;;;;;;5029498;28;20045;-79
2022/04/13 07:15:01;;;;;;;19.33;11.57;;;13.40;99.90;;;;;;5031076;28;20057;-80
2022/04/13 07:17:26;;;;;;;22.65;11.07;;;13.40;99.90;;;;;;5012350;28;20051;-82
2022/04/13 07:19:52;;;;;;;22.30;10.90;;;13.40;99.90;;;;;;4994125;28;20120;-82
2022/04/13 07:22:18;;;;;;;21.30;10.02;;;13.40;99.90;;;;;;5010351;28;20099;-81
2022/04/13 07:24:44;;;;;;;18.80;9.82;;;13.40;99.90;;;;;;5018523;28;20052;-80
2022/04/13 07:27:09;;;;;;;20.55;10.77;;;13.50;99.90;;;;;;5013322;28;20132;-80
2022/04/13 07:29:35;;;;;;;14.35;8.73;;;13.50;99.90;;;;;;5029947;28;20116;-80
2022/04/13 07:32:01;;;;;;;14.65;8.02;;;13.60;99.90;;;;;;5010841;28;20045;-81
2022/04/13 07:34:26;;;;;;;16.83;9.30;;;13.70;99.90;;;;;;5010796;28;20048;-80
2022/04/13 07:36:52;;;;;;;19.80;8.40;;;13.80;99.90;;;;;;5009461;28;20056;-81
2022/04/13 07:39:18;;;;;;;15.07;8.48;;;13.90;99.90;;;;;;4998421;28;20049;-80
2022/04/13 07:41:43;;;;;;;18.35;9.68;;;14.00;99.90;;;;;;5026227;28;20033;-80
2022/04/13 07:44:09;;;;;;;15.32;8.77;;;14.10;99.90;;;;;;5028733;28;20405;-80
2022/04/13 07:46:35;;;;;;;14.43;7.75;;;14.10;99.90;;;;;;5028423;28;20874;-80
2022/04/13 07:49:01;;;;;;;13.15;7.90;;;14.20;99.90;;;;;;5029281;28;20049;-80
2022/04/13 07:51:27;;;;;;;15.95;8.20;;;14.20;99.90;;;;;;5029487;28;20056;-80
2022/04/13 07:53:53;;;;;;;11.98;7.43;;;14.30;99.90;;;;;;4996144;28;20049;-80
2022/04/13 07:56:18;;;;;;;15.88;8.35;;;14.40;99.90;;;;;;5029444;28;20045;-80
2022/04/13 07:58:44;;;;;;;14.27;7.13;;;14.50;99.90;;;;;;5025463;28;20056;-80
2022/04/13 08:01:10;;;;;;;18.10;8.60;;;14.60;99.90;;;;;;5032281;28;20103;-80
2022/04/13 08:03:36;;;;;;;16.08;8.75;;;14.60;99.90;;;;;;5032800;28;20492;-80
2022/04/13 08:06:02;;;;;;;12.50;7.40;;;14.70;99.90;;;;;;4995858;28;20049;-80
2022/04/13 08:08:28;;;;;;;11.57;6.13;;;14.80;99.90;;;;;;5011643;28;20494;-80
2022/04/13 08:10:54;;;;;;;12.20;6.45;;;14.90;99.90;;;;;;5032696;28;20064;-79
2022/04/13 08:13:20;;;;;;;14.73;7.10;;;14.90;99.90;;;;;;5009799;28;20045;-81
2022/04/13 08:15:45;;;;;;;13.15;6.43;;;15.10;99.90;;;;;;5029243;28;20048;-80
2022/04/13 08:18:11;;;;;;;14.07;7.25;;;15.00;99.90;;;;;;5008775;28;20566;-81
2022/04/13 08:20:38;;;;;;;11.88;6.35;;;15.10;99.90;;;;;;5014637;28;20489;-81
2022/04/13 08:23:03;;;;;;;16.15;7.35;;;15.10;99.90;;;;;;5002222;28;20071;-81
2022/04/13 08:25:30;;;;;;;12.30;6.50;;;15.10;99.90;;;;;;5034728;28;20049;-81
2022/04/13 08:27:56;;;;;;;12.65;6.90;;;15.10;99.90;;;;;;5017964;28;20061;-81
2022/04/13 08:30:23;;;;;;;17.63;7.85;;;15.10;99.90;;;;;;5017952;28;20501;-81
2022/04/13 08:32:49;;;;;;;13.65;7.00;;;15.10;99.90;;;;;;5035611;28;20460;-81
2022/04/13 08:35:14;;;;;;;15.60;7.43;;;15.10;99.90;;;;;;5002646;28;20132;-81
2022/04/13 08:37:40;;;;;;;16.92;6.80;;;15.10;99.90;;;;;;5030213;28;20124;-81
2022/04/13 08:40:06;;;;;;;14.52;7.05;;;15.10;99.90;;;;;;5006955;28;20057;-81
2022/04/13 08:42:46;;;;;;;12.27;7.60;;;15.00;99.90;;;;;;4997866;28;20049;-81
2022/04/13 08:45:20;;;;;;;14.32;6.82;;;15.00;99.90;;;;;;5015351;28;20053;-81
2022/04/13 08:47:48;;;;;;;14.25;7.43;;;15.10;99.90;;;;;;5016226;28;20111;-81
2022/04/13 08:50:14;;;;;;;13.27;7.32;;;15.00;99.90;;;;;;5035092;28;20064;-81
2022/04/13 08:52:40;;;;;;;12.65;7.47;;;15.10;99.90;;;;;;5033996;28;20828;-81
2022/04/13 08:55:11;;;;;;;15.50;8.02;;;15.10;99.90;;;;;;5034715;28;20052;-81
2022/04/13 08:57:47;;;;;;;16.10;8.52;;;15.10;99.90;;;;;;5033651;28;20048;-81
2022/04/13 09:00:18;;;;;;;17.30;8.15;;;15.20;99.90;;;;;;5034716;28;20037;-81
2022/04/13 09:03:22;;;;;;;17.17;9.13;;;15.20;99.90;;;;;;5017935;28;20048;-81
2022/04/13 09:05:51;;;;;;;17.67;8.38;;;15.20;99.90;;;;;;5034310;28;20057;-81
2022/04/13 09:08:34;;;;;;;16.13;8.93;;;15.10;99.90;;;;;;5034845;28;20053;-81
2022/04/13 09:11:01;;;;;;;17.88;9.43;;;15.10;99.90;;;;;;5034107;28;20048;-81
2022/04/13 09:13:30;;;;;;;16.52;9.55;;;15.00;99.90;;;;;;5031624;28;20053;-81
2022/04/13 09:15:58;;;;;;;15.70;9.45;;;15.00;99.90;;;;;;5015610;28;20151;-81
2022/04/13 09:18:24;;;;;;;16.88;8.85;;;15.00;99.90;;;;;;5026299;28;20109;-81
2022/04/13 09:20:50;;;;;;;;;;;15.00;99.90;;;;;;5017510;28;20049;-81
2022/04/13 09:23:16;;;;;;;16.58;8.50;;;15.00;99.90;;;;;;5018876;28;19928;-80
2022/04/13 09:25:43;;;;;;;18.13;9.05;;;15.10;99.90;;;;;;4997926;28;20391;-80
2022/04/13 09:28:09;;;;;;;20.73;10.13;;;15.10;99.90;;;;;;5048160;28;20417;-84
2022/04/13 09:30:35;;;;;;;16.27;8.98;;;15.10;99.90;;;;;;5016676;28;20082;-80
2022/04/13 09:33:02;;;;;;;14.52;8.75;;;15.00;99.90;;;;;;5032675;28;20160;-80
2022/04/13 09:35:31;;;;;;;16.10;8.40;;;15.10;99.90;;;;;;5031843;28;20110;-81
2022/04/13 09:38:04;;;;;;;14.32;8.93;;;15.10;99.90;;;;;;5024878;28;20060;-81
2022/04/13 09:40:36;;;;;;;14.40;8.95;;;15.20;99.90;;;;;;5033612;28;20106;-80
2022/04/13 09:43:08;;;;;;;14.88;8.82;;;15.30;99.90;;;;;;5033267;28;20080;-80
2022/04/13 09:45:35;;;;;;;17.73;10.05;;;15.50;99.90;;;;;;5032878;28;20079;-80
2022/04/13 09:48:05;;;;;;;17.05;8.05;;;15.60;99.90;;;;;;5034029;28;20561;-80
2022/04/13 09:50:31;;;;;;;11.90;7.40;;;15.80;99.90;;;;;;5033245;28;20049;-82
2022/04/13 09:53:03;;;;;;;;;;;15.90;99.90;;;;;;5016258;28;20404;-81
2022/04/13 09:55:29;;;;;;;16.10;8.82;;;16.00;99.90;;;;;;5033389;28;20342;-81
2022/04/13 09:58:08;;;;;;;;;;;16.10;99.90;;;;;;5033408;28;20102;-81
2022/04/13 10:00:35;;;;;;;14.40;6.80;;;16.20;99.90;;;;;;5031952;28;19920;-80
2022/04/13 10:03:09;;;;;;;15.98;8.00;;;16.30;99.90;;;;;;5028812;28;20076;-82
2022/04/13 10:05:36;;;;;;;13.98;7.47;;;16.30;99.90;;;;;;5032282;28;20107;-81
2022/04/13 10:08:10;;;;;;;13.60;7.25;;;16.40;99.90;;;;;;5017166;28;20041;-81
2022/04/13 10:10:43;;;;;;;13.43;8.68;;;16.40;99.90;;;;;;5033086;28;20051;-80
2022/04/13 10:13:10;;;;;;;14.77;7.45;;;16.40;99.90;;;;;;5016423;28;20052;-81
2022/04/13 10:15:36;;;;;;;13.95;7.72;;;16.50;99.90;;;;;;5032594;28;20044;-81
2022/04/13 10:18:05;;;;;;;17.10;7.40;;;16.50;99.90;;;;;;5019189;28;20055;-81
2022/04/13 10:20:46;;;;;;;14.50;6.40;;;16.50;99.90;;;;;;5023166;28;20069;-81
2022/04/13 10:23:12;;;;;;;12.95;6.72;;;16.50;99.90;;;;;;5030376;28;20060;-81
2022/04/13 10:25:38;;;;;;;12.77;6.32;;;16.50;99.90;;;;;;5030662;28;20048;-81
2022/04/13 10:28:04;;;;;;;12.40;7.15;;;16.50;99.90;;;;;;5031997;28;20146;-81
2022/04/13 10:30:37;;;;;;;;;;;16.50;99.90;;;;;;5032759;28;20120;-81
2022/04/13 10:33:04;;;;;;;15.93;7.70;;;16.60;99.90;;;;;;5032972;28;19920;-81
2022/04/13 10:35:32;;;;;;;11.93;7.68;;;16.60;99.90;;;;;;5049325;28;20049;-81
2022/04/13 10:37:58;;;;;;;13.00;7.05;;;16.70;99.90;;;;;;5042690;28;20143;-81
2022/04/13 10:40:25;;;;;;;11.90;7.35;;;16.80;99.90;;;;;;5011684;28;20041;-81
2022/04/13 10:42:52;;;;;;;15.32;7.05;;;16.90;99.90;;;;;;5031098;28;20699;-81
2022/04/13 10:45:18;;;;;;;10.18;6.28;;;17.00;99.90;;;;;;5032797;28;20056;-81
2022/04/13 10:47:53;;;;;;;;;;;17.10;99.90;;;;;;5013827;28;20061;-81
2022/04/13 10:50:30;;;;;;;12.30;7.00;;;17.20;99.90;;;;;;5032608;28;19924;-81
2022/04/13 10:53:17;;;;;;;9.35;4.97;;;17.20;99.90;;;;;;5015987;28;20064;-81
2022/04/13 10:55:44;;;;;;;;;;;17.30;99.90;;;;;;5015988;28;20057;-81
2022/04/13 10:58:23;;;;;;;12.77;6.35;;;17.30;99.90;;;;;;5031776;28;19925;-81
2022/04/13 11:00:56;;;;;;;10.70;5.30;;;17.30;99.90;;;;;;5032444;28;20061;-80
2022/04/13 11:03:25;;;;;;;11.57;5.32;;;17.40;99.90;;;;;;5015727;28;20053;-81
2022/04/13 11:05:53;;;;;;;11.65;6.38;;;17.40;99.90;;;;;;4999481;28;20241;-81
2022/04/13 11:08:29;;;;;;;13.15;7.35;;;17.40;99.90;;;;;;5032631;28;20436;-81
2022/04/13 11:10:56;;;;;;;11.07;6.68;;;17.30;99.90;;;;;;5032113;28;20150;-81
2022/04/13 11:13:22;;;;;;;12.48;7.32;;;17.30;99.90;;;;;;5031361;28;20522;-81
2022/04/13 11:15:50;;;;;;;13.30;6.90;;;17.30;99.90;;;;;;5029294;28;20105;-81
2022/04/13 11:18:20;;;;;;;11.63;7.05;;;17.30;99.90;;;;;;5012818;28;20041;-81
2022/04/13 11:21:01;;;;;;;11.65;7.05;;;17.40;99.90;;;;;;5028427;28;20052;-81
2022/04/13 11:23:53;;;;;;;11.85;6.10;;;17.50;99.90;;;;;;5028553;28;20048;-81
2022/04/13 11:26:34;;;;;;;15.52;6.38;;;17.50;99.90;;;;;;5042706;28;20122;-80
2022/04/13 11:29:09;;;;;;;11.38;6.70;;;17.50;99.90;;;;;;5027970;28;20057;-81
2022/04/13 11:32:00;;;;;;;14.40;6.43;;;17.50;99.90;;;;;;5015161;28;20520;-80
2022/04/13 11:34:38;;;;;;;11.07;5.82;;;17.50;99.90;;;;;;5032303;28;20037;-81
2022/04/13 11:37:05;;;;;;;12.05;6.53;;;17.40;99.90;;;;;;5031689;28;20053;-82
2022/04/13 11:39:45;;;;;;;12.20;7.13;;;17.40;99.90;;;;;;5047037;28;20782;-80
2022/04/13 11:42:37;;;;;;;10.88;6.30;;;17.40;99.90;;;;;;5015710;28;20231;-81
2022/04/13 11:45:05;;;;;;;9.68;6.18;;;17.40;99.90;;;;;;5027838;28;20132;-83
2022/04/13 11:47:43;;;;;;;10.48;6.20;;;17.40;99.90;;;;;;5035685;28;20056;-81
2022/04/13 11:50:18;;;;;;;12.60;6.35;;;17.30;99.90;;;;;;5036205;28;20060;-81
2022/04/13 11:52:48;;;;;;;13.52;6.53;;;17.30;99.90;;;;;;5018465;28;20052;-81
2022/04/13 11:55:18;;;;;;;8.52;5.47;;;17.10;99.90;;;;;;5052633;28;20061;-81
2022/04/13 11:58:08;;;;;;;11.95;6.00;;;17.10;99.90;;;;;;5035162;28;20049;-81
2022/04/13 12:00:52;;;;;;;12.68;5.82;;;17.10;99.90;;;;;;5035612;28;20098;-81
2022/04/13 12:03:22;;;;;;;9.77;6.07;;;17.10;99.90;;;;;;5026813;28;20057;-81
2022/04/13 12:05:51;;;;;;;13.93;5.75;;;17.10;99.90;;;;;;5030586;28;20129;-81
2022/04/13 12:08:30;;;;;;;11.93;5.35;;;17.20;99.90;;;;;;5035059;28;20053;-81
2022/04/13 12:11:01;;;;;;;7.60;3.95;;;17.30;99.90;;;;;;5035334;28;20055;-81
2022/04/13 12:13:32;;;;;;;8.77;4.18;;;17.40;99.90;;;;;;5034992;28;20509;-81
2022/04/13 12:15:59;;;;;;;10.43;4.43;;;17.50;99.90;;;;;;5035086;28;20157;-81
2022/04/13 12:18:26;;;;;;;8.40;4.35;;;17.50;99.90;;;;;;5035606;28;20489;-81
2022/04/13 12:20:54;;;;;;;10.95;5.57;;;17.60;99.90;;;;;;5002497;28;20048;-81
2022/04/13 12:23:25;;;;;;;12.20;6.10;;;17.60;99.90;;;;;;5034839;28;20041;-81
2022/04/13 12:25:56;;;;;;;11.20;5.68;;;17.70;99.90;;;;;;5035087;28;20561;-81
2022/04/13 12:28:23;;;;;;;15.13;6.28;;;17.80;99.90;;;;;;5034969;28;20044;-81
2022/04/13 12:30:59;;;;;;;13.50;6.22;;;17.90;99.90;;;;;;5034539;28;20135;-81
2022/04/13 12:33:27;;;;;;;11.07;6.35;;;17.90;99.90;;;;;;5019144;28;20049;-81
2022/04/13 12:36:01;;;;;;;11.80;6.57;;;17.90;99.90;;;;;;5027973;28;20044;-81
2022/04/13 12:38:46;;;;;;;9.48;5.38;;;17.90;99.90;;;;;;5031268;28;20061;-81
2022/04/13 12:41:13;;;;;;;11.48;5.47;;;17.90;99.90;;;;;;5012228;28;20053;-81